Time;durP1;ratioP1;P1;durP2;ratioP2;P2;SDS_P1;SDS_P2;PMS_P1;PMS_P2;Temp;Humidity;BMP_temperature;BMP_pressure;BME280_temperature;BME280_humidity;BME280_pressure;Samples;Min_cycle;Max_cycle;Signal;HPM_P1;HPM_P2
2022/03/11 00:00:37;;;;;;;19.23;10.15;;;22.50;29.90;;;;;;6136322;28;84048;-62
2022/03/11 00:03:39;;;;;;;21.42;11.75;;;22.50;30.00;;;;;;6133180;28;83643;-62
2022/03/11 00:06:41;;;;;;;23.85;12.98;;;22.50;30.00;;;;;;6134831;28;83377;-63
2022/03/11 00:09:42;;;;;;;20.40;11.23;;;22.50;29.80;;;;;;6156652;28;83082;-62
2022/03/11 00:12:47;;;;;;;23.42;10.98;;;22.40;30.00;;;;;;6158394;28;83298;-63
2022/03/11 00:15:47;;;;;;;22.40;12.05;;;22.50;30.00;;;;;;6141683;28;83037;-63
2022/03/11 00:18:48;;;;;;;22.00;11.50;;;22.40;29.80;;;;;;6124280;28;83136;-62
2022/03/11 00:21:49;;;;;;;24.67;13.07;;;22.50;29.60;;;;;;6141883;28;82879;-64
2022/03/11 00:24:49;;;;;;;22.38;12.48;;;22.50;29.20;;;;;;6147201;28;83585;-63
2022/03/11 00:27:50;;;;;;;21.65;11.40;;;22.60;29.00;;;;;;6135247;28;82784;-63
2022/03/11 00:30:51;;;;;;;25.17;13.45;;;22.60;28.90;;;;;;6115496;28;83085;-62
2022/03/11 00:33:51;;;;;;;23.92;12.38;;;22.70;28.80;;;;;;6148206;28;83337;-62
2022/03/11 00:36:52;;;;;;;21.77;11.57;;;22.70;28.60;;;;;;6158612;28;83302;-63
2022/03/11 00:39:53;;;;;;;24.42;13.18;;;22.70;28.50;;;;;;6156785;28;84144;-62
2022/03/11 00:42:54;;;;;;;24.58;12.52;;;22.80;28.30;;;;;;6128290;28;83052;-63
2022/03/11 00:45:54;;;;;;;24.52;11.98;;;22.80;28.20;;;;;;6111907;28;84130;-62
2022/03/11 00:48:55;;;;;;;23.50;14.02;;;22.80;28.10;;;;;;6126575;28;82968;-62
2022/03/11 00:51:55;;;;;;;22.42;12.40;;;22.80;27.90;;;;;;6134095;28;82965;-62
2022/03/11 00:54:56;;;;;;;20.00;11.52;;;22.90;27.80;;;;;;6158518;28;85310;-63
2022/03/11 00:57:56;;;;;;;24.27;12.85;;;22.90;28.00;;;;;;6143197;28;83105;-63
2022/03/11 01:00:57;;;;;;;21.40;11.88;;;22.90;28.00;;;;;;6113015;28;83241;-63
2022/03/11 01:03:57;;;;;;;20.17;11.75;;;22.90;27.90;;;;;;6133282;28;83341;-63
2022/03/11 01:06:58;;;;;;;23.60;12.52;;;22.90;28.00;;;;;;6133785;28;83398;-63
2022/03/11 01:09:58;;;;;;;22.40;12.05;;;22.90;28.00;;;;;;6132499;28;84057;-64
2022/03/11 01:12:59;;;;;;;20.70;12.05;;;22.90;28.00;;;;;;6119189;28;82825;-63
2022/03/11 01:15:59;;;;;;;20.35;12.20;;;22.90;28.20;;;;;;6142721;28;82807;-63
2022/03/11 01:19:00;;;;;;;23.48;12.43;;;22.90;28.10;;;;;;6138538;28;83419;-63
2022/03/11 01:22:00;;;;;;;23.70;12.18;;;22.90;28.70;;;;;;6144980;28;84286;-63
2022/03/11 01:25:01;;;;;;;21.23;12.05;;;22.90;28.20;;;;;;6143107;28;83590;-63
2022/03/11 01:28:01;;;;;;;22.67;12.40;;;22.90;28.60;;;;;;6144934;28;83461;-63
2022/03/11 01:31:02;;;;;;;19.88;11.70;;;22.90;28.60;;;;;;6157699;28;83542;-63
2022/03/11 01:34:03;;;;;;;24.27;12.68;;;22.80;28.20;;;;;;6157431;28;85281;-63
2022/03/11 01:37:04;;;;;;;19.80;12.05;;;22.80;28.50;;;;;;6148378;28;83021;-63
2022/03/11 01:40:04;;;;;;;18.42;11.07;;;22.70;29.10;;;;;;6122879;28;83180;-63
2022/03/11 01:43:05;;;;;;;22.33;11.95;;;22.70;29.70;;;;;;6124618;28;83438;-63
2022/03/11 01:46:06;;;;;;;21.58;12.02;;;22.70;28.60;;;;;;6133778;28;82761;-63
2022/03/11 01:49:07;;;;;;;22.60;12.63;;;22.70;28.50;;;;;;6137728;28;84404;-63
2022/03/11 01:52:07;;;;;;;21.63;12.30;;;22.70;28.60;;;;;;6139811;28;83000;-64
2022/03/11 01:55:08;;;;;;;22.40;11.63;;;22.60;28.90;;;;;;6136266;28;83335;-63
2022/03/11 01:58:11;;;;;;;21.25;11.40;;;22.60;28.80;;;;;;6138408;28;84300;-63
2022/03/11 02:01:11;;;;;;;24.92;13.93;;;22.60;28.90;;;;;;6140615;28;84344;-63
2022/03/11 02:04:12;;;;;;;22.73;12.05;;;22.60;28.90;;;;;;6143666;28;83161;-63
2022/03/11 02:07:12;;;;;;;21.17;12.07;;;22.50;29.00;;;;;;6142952;28;84902;-63
2022/03/11 02:10:13;;;;;;;26.77;13.43;;;22.50;29.00;;;;;;6146134;28;84204;-63
2022/03/11 02:13:14;;;;;;;23.60;13.02;;;22.50;29.10;;;;;;6149124;28;84025;-63
2022/03/11 02:16:14;;;;;;;22.15;12.68;;;22.50;29.30;;;;;;6145603;28;84036;-63
2022/03/11 02:19:15;;;;;;;19.70;11.30;;;22.50;29.50;;;;;;6133998;28;83856;-62
2022/03/11 02:22:15;;;;;;;20.10;11.32;;;22.50;29.30;;;;;;6147690;28;84222;-63
2022/03/11 02:25:16;;;;;;;21.08;11.55;;;22.40;29.60;;;;;;6143559;28;83157;-62
2022/03/11 02:28:16;;;;;;;17.90;10.85;;;22.40;29.60;;;;;;6146691;28;83544;-64
2022/03/11 02:31:18;;;;;;;22.38;12.07;;;22.40;29.60;;;;;;6156519;28;83021;-64
2022/03/11 02:34:18;;;;;;;19.10;10.75;;;22.30;29.90;;;;;;6138199;28;83110;-64
2022/03/11 02:37:19;;;;;;;24.02;12.05;;;22.30;29.80;;;;;;6131636;28;84064;-62
2022/03/11 02:40:19;;;;;;;20.33;11.63;;;22.30;29.80;;;;;;6132368;28;83741;-62
2022/03/11 02:43:20;;;;;;;24.85;13.02;;;22.30;29.80;;;;;;6132045;28;83156;-62
2022/03/11 02:46:21;;;;;;;20.10;10.60;;;22.30;29.70;;;;;;6125606;28;83070;-61
2022/03/11 02:49:22;;;;;;;20.40;11.65;;;22.30;29.90;;;;;;6118585;28;83397;-62
2022/03/11 02:52:23;;;;;;;20.83;11.52;;;22.20;30.00;;;;;;6137158;28;83065;-62
2022/03/11 02:55:23;;;;;;;22.35;11.38;;;22.20;29.90;;;;;;6151140;28;82957;-65
2022/03/11 02:58:24;;;;;;;22.08;12.68;;;22.20;30.00;;;;;;6133849;28;83009;-64
2022/03/11 03:01:24;;;;;;;18.88;10.63;;;22.30;30.20;;;;;;6117099;28;84378;-64
2022/03/11 03:04:25;;;;;;;23.52;11.88;;;22.20;30.10;;;;;;6154512;28;84180;-64
2022/03/11 03:07:25;;;;;;;21.90;11.40;;;22.20;30.00;;;;;;6159379;28;83519;-64
2022/03/11 03:10:28;;;;;;;21.92;12.35;;;22.20;30.10;;;;;;6160316;28;83990;-63
2022/03/11 03:13:29;;;;;;;22.63;11.70;;;22.20;30.00;;;;;;6160259;28;83267;-63
2022/03/11 03:16:29;;;;;;;21.83;11.95;;;22.20;30.10;;;;;;6147179;28;84409;-64
2022/03/11 03:19:30;;;;;;;22.55;12.48;;;22.20;30.10;;;;;;6140932;28;83123;-63
2022/03/11 03:22:30;;;;;;;25.23;13.18;;;22.20;30.00;;;;;;6161191;28;85733;-63
2022/03/11 03:25:31;;;;;;;24.17;12.60;;;22.20;30.20;;;;;;6130768;28;83480;-63
2022/03/11 03:28:32;;;;;;;25.92;13.57;;;22.20;30.90;;;;;;6140401;28;83306;-64
2022/03/11 03:31:32;;;;;;;24.63;13.60;;;22.20;30.00;;;;;;6135666;28;82849;-64
2022/03/11 03:34:33;;;;;;;25.90;13.02;;;22.20;30.00;;;;;;6138382;28;83167;-64
2022/03/11 03:37:34;;;;;;;26.38;14.55;;;22.20;30.00;;;;;;6159829;28;83488;-63
2022/03/11 03:40:35;;;;;;;28.20;13.52;;;22.30;29.50;;;;;;6157471;28;83963;-63
2022/03/11 03:43:35;;;;;;;27.33;14.35;;;22.30;29.30;;;;;;6114761;28;85176;-63
2022/03/11 03:46:36;;;;;;;25.77;13.50;;;22.40;29.00;;;;;;6148174;28;83550;-63
2022/03/11 03:49:38;;;;;;;25.35;14.30;;;22.40;28.90;;;;;;6148094;28;83072;-63
2022/03/11 03:52:38;;;;;;;24.67;13.30;;;22.40;28.80;;;;;;6152860;28;84518;-63
2022/03/11 03:55:39;;;;;;;29.42;15.07;;;22.50;28.50;;;;;;6146643;28;83007;-65
2022/03/11 03:58:40;;;;;;;27.02;14.23;;;22.50;28.40;;;;;;6145824;28;84484;-65
2022/03/11 04:01:41;;;;;;;28.00;15.63;;;22.60;28.20;;;;;;6142761;28;84041;-66
2022/03/11 04:04:41;;;;;;;26.20;14.07;;;22.60;28.00;;;;;;6157404;28;86274;-66
2022/03/11 04:07:42;;;;;;;26.33;14.25;;;22.60;28.00;;;;;;6142731;28;83221;-67
2022/03/11 04:10:42;;;;;;;24.48;13.40;;;22.70;28.00;;;;;;6134183;28;82740;-66
2022/03/11 04:13:43;;;;;;;29.10;14.38;;;22.70;28.00;;;;;;6157589;28;83540;-66
2022/03/11 04:16:43;;;;;;;27.55;14.25;;;22.70;28.10;;;;;;6134921;28;82899;-65
2022/03/11 04:19:44;;;;;;;29.38;15.13;;;22.70;28.10;;;;;;6134285;28;82848;-64
2022/03/11 04:22:44;;;;;;;23.50;13.07;;;22.80;28.30;;;;;;6133677;28;83079;-65
2022/03/11 04:25:45;;;;;;;24.52;13.35;;;22.80;28.30;;;;;;6132376;28;87696;-64
2022/03/11 04:28:46;;;;;;;27.13;13.60;;;22.80;28.40;;;;;;6112517;28;83442;-65
2022/03/11 04:31:47;;;;;;;26.15;13.43;;;22.80;28.50;;;;;;6133989;28;83284;-65
2022/03/11 04:34:47;;;;;;;23.60;13.35;;;22.80;28.60;;;;;;6155387;28;84219;-64
2022/03/11 04:37:48;;;;;;;21.95;12.13;;;22.80;28.70;;;;;;6149238;28;83445;-64
2022/03/11 04:40:48;;;;;;;21.63;12.05;;;22.80;28.80;;;;;;6125984;28;83075;-64
2022/03/11 04:43:49;;;;;;;21.92;11.98;;;22.80;28.80;;;;;;6140402;28;83301;-65
2022/03/11 04:46:49;;;;;;;23.58;12.65;;;22.90;29.00;;;;;;6141439;28;83252;-60
2022/03/11 04:49:50;;;;;;;25.80;13.15;;;22.90;29.20;;;;;;6141475;28;83946;-60
2022/03/11 04:52:51;;;;;;;25.42;13.00;;;22.90;29.40;;;;;;6136885;28;83589;-64
2022/03/11 04:55:52;;;;;;;23.73;12.68;;;22.90;29.30;;;;;;6129933;28;84165;-62
2022/03/11 04:58:52;;;;;;;24.35;12.77;;;22.90;29.50;;;;;;6128267;28;83350;-61
2022/03/11 05:01:53;;;;;;;25.50;12.90;;;23.00;29.40;;;;;;6135636;28;83075;-59
2022/03/11 05:04:54;;;;;;;29.35;12.82;;;23.00;30.00;;;;;;6131927;28;83131;-60
2022/03/11 05:07:54;;;;;;;22.42;13.13;;;23.00;29.90;;;;;;6091225;28;1198816;-59
2022/03/11 05:10:55;;;;;;;20.95;11.95;;;23.00;29.70;;;;;;6128719;28;84011;-59
2022/03/11 05:13:57;;;;;;;28.50;14.50;;;23.00;29.40;;;;;;6123450;28;83233;-62
2022/03/11 05:16:58;;;;;;;32.72;13.75;;;23.00;29.00;;;;;;6126824;28;83169;-66
2022/03/11 05:19:59;;;;;;;30.48;14.40;;;23.00;28.80;;;;;;6132012;28;84244;-62
2022/03/11 05:23:00;;;;;;;29.45;14.75;;;23.00;28.90;;;;;;6135853;28;89849;-63
2022/03/11 05:26:02;;;;;;;30.67;14.07;;;23.00;28.80;;;;;;6134231;28;82780;-63
2022/03/11 05:29:03;;;;;;;30.52;14.82;;;23.00;28.90;;;;;;6130567;28;83166;-63
2022/03/11 05:32:03;;;;;;;29.35;15.02;;;23.00;28.80;;;;;;6131425;28;83002;-62
2022/03/11 05:35:04;;;;;;;31.67;15.10;;;23.00;28.80;;;;;;6132641;28;82878;-63
2022/03/11 05:38:04;;;;;;;29.65;15.77;;;23.00;28.80;;;;;;6142776;28;84955;-63
2022/03/11 05:41:05;;;;;;;24.13;13.55;;;23.00;29.00;;;;;;6145649;28;89703;-61
2022/03/11 05:44:05;;;;;;;25.08;13.75;;;23.00;28.90;;;;;;6144515;28;83195;-62
2022/03/11 05:47:06;;;;;;;30.67;16.02;;;22.90;29.10;;;;;;6141113;28;84059;-61
2022/03/11 05:50:06;;;;;;;25.77;14.00;;;23.00;29.10;;;;;;6142315;28;83532;-59
2022/03/11 05:53:07;;;;;;;26.30;13.50;;;22.90;29.30;;;;;;6119756;28;82866;-63
2022/03/11 05:56:07;;;;;;;26.42;14.05;;;22.90;29.30;;;;;;6109043;28;83354;-63
2022/03/11 05:59:08;;;;;;;34.42;14.65;;;22.90;29.40;;;;;;6153112;28;82915;-63
2022/03/11 06:02:08;;;;;;;30.65;14.65;;;22.90;29.10;;;;;;6140934;28;84492;-63
2022/03/11 06:05:10;;;;;;;26.48;14.20;;;22.80;28.90;;;;;;6153881;28;84423;-60
2022/03/11 06:08:10;;;;;;;30.63;15.68;;;22.80;28.50;;;;;;6132806;28;83428;-62
2022/03/11 06:11:11;;;;;;;36.53;15.98;;;22.80;28.80;;;;;;6108616;28;82987;-61
2022/03/11 06:14:11;;;;;;;28.27;14.98;;;22.70;28.50;;;;;;6128546;28;83197;-59
2022/03/11 06:17:14;;;;;;;25.42;14.50;;;22.70;28.50;;;;;;6133677;28;85919;-61
2022/03/11 06:20:14;;;;;;;27.80;15.73;;;22.70;28.40;;;;;;6145418;28;83342;-61
2022/03/11 06:23:16;;;;;;;29.08;14.48;;;22.60;28.30;;;;;;6135131;28;86223;-65
2022/03/11 06:26:16;;;;;;;30.40;14.25;;;22.60;28.20;;;;;;6137935;28;83577;-64
2022/03/11 06:29:17;;;;;;;27.90;14.60;;;22.60;28.80;;;;;;6154439;28;82932;-65
2022/03/11 06:32:17;;;;;;;32.45;13.77;;;22.60;29.00;;;;;;6143064;28;82883;-69
2022/03/11 06:35:18;;;;;;;27.02;14.43;;;22.60;28.70;;;;;;6132280;28;83187;-66
2022/03/11 06:38:18;;;;;;;26.33;13.90;;;22.60;28.80;;;;;;6132228;28;83059;-66
2022/03/11 06:41:24;;;;;;;28.83;14.67;;;22.60;29.10;;;;;;6133495;28;83350;-66
2022/03/11 06:44:24;;;;;;;29.20;13.88;;;22.60;29.00;;;;;;6117073;28;83661;-66
2022/03/11 06:47:24;;;;;;;27.05;13.38;;;22.60;29.40;;;;;;6133933;28;84474;-66
2022/03/11 06:50:25;;;;;;;24.38;13.35;;;22.60;29.10;;;;;;6152563;28;83454;-66
2022/03/11 06:53:26;;;;;;;28.10;13.98;;;22.60;29.10;;;;;;6153809;28;83058;-66
2022/03/11 06:56:27;;;;;;;30.45;13.48;;;22.60;29.00;;;;;;6129392;28;83071;-67
2022/03/11 06:59:27;;;;;;;28.73;14.13;;;22.60;29.00;;;;;;6118123;28;83175;-66
2022/03/11 07:02:28;;;;;;;25.30;13.60;;;22.60;28.90;;;;;;6144437;28;83179;-67
2022/03/11 07:05:29;;;;;;;22.88;13.02;;;22.60;29.00;;;;;;6137484;28;82872;-62
2022/03/11 07:08:29;;;;;;;28.45;14.68;;;22.60;28.80;;;;;;6122651;28;83626;-62
2022/03/11 07:11:32;;;;;;;27.33;15.23;;;22.60;28.50;;;;;;6126003;28;83336;-68
2022/03/11 07:14:33;;;;;;;23.20;13.88;;;22.60;28.30;;;;;;6138817;28;83163;-67
2022/03/11 07:17:34;;;;;;;26.08;14.05;;;22.60;29.00;;;;;;6131382;28;83516;-64
2022/03/11 07:20:35;;;;;;;28.42;13.55;;;22.60;28.50;;;;;;6126349;28;82879;-64
2022/03/11 07:23:36;;;;;;;25.45;13.40;;;22.60;28.50;;;;;;6155989;28;82858;-64
2022/03/11 07:26:36;;;;;;;24.33;13.65;;;22.60;28.80;;;;;;6155252;28;83269;-63
2022/03/11 07:29:38;;;;;;;27.40;13.80;;;22.60;28.50;;;;;;6139036;28;83255;-64
2022/03/11 07:32:38;;;;;;;27.63;13.60;;;22.60;28.40;;;;;;6123196;28;83444;-64
2022/03/11 07:35:39;;;;;;;24.55;13.65;;;22.60;28.30;;;;;;6124366;28;83414;-64
2022/03/11 07:38:39;;;;;;;20.13;11.65;;;22.60;28.20;;;;;;6117833;28;84234;-64
2022/03/11 07:41:40;;;;;;;21.80;12.15;;;22.60;28.50;;;;;;6125859;28;87600;-61
2022/03/11 07:44:42;;;;;;;23.52;12.25;;;22.60;28.50;;;;;;6138747;28;83544;-63
2022/03/11 07:47:42;;;;;;;21.85;12.57;;;22.60;28.20;;;;;;6140929;28;84156;-63
2022/03/11 07:50:43;;;;;;;21.27;11.60;;;22.60;28.00;;;;;;6139090;28;84157;-65
2022/03/11 07:53:43;;;;;;;19.35;11.25;;;22.70;28.10;;;;;;6130120;28;83531;-63
2022/03/11 07:56:44;;;;;;;24.40;13.10;;;22.70;28.00;;;;;;6126601;28;83210;-64
2022/03/11 07:59:44;;;;;;;23.42;11.75;;;22.70;27.80;;;;;;6130621;28;83584;-63
2022/03/11 08:02:45;;;;;;;20.30;11.65;;;22.70;27.90;;;;;;6126555;28;83896;-64
2022/03/11 08:05:45;;;;;;;23.00;12.38;;;22.70;27.90;;;;;;6131218;28;82863;-64
2022/03/11 08:08:46;;;;;;;20.38;10.90;;;22.70;28.10;;;;;;6152990;28;83377;-65
2022/03/11 08:11:47;;;;;;;19.63;11.35;;;22.70;29.30;;;;;;6157726;28;82981;-63
2022/03/11 08:14:47;;;;;;;20.15;10.75;;;22.70;29.40;;;;;;6149409;28;82941;-64
2022/03/11 08:17:48;;;;;;;21.38;10.85;;;22.80;29.70;;;;;;6140552;28;83506;-68
2022/03/11 08:20:48;;;;;;;17.10;9.35;;;22.70;29.80;;;;;;6128556;28;83174;-66
2022/03/11 08:23:49;;;;;;;16.90;9.45;;;22.80;30.00;;;;;;6133626;28;83595;-68
2022/03/11 08:26:49;;;;;;;17.27;9.23;;;22.80;29.50;;;;;;6135725;28;80682;-72
2022/03/11 08:29:50;;;;;;;14.15;9.23;;;22.80;29.30;;;;;;6137432;28;80420;-68
2022/03/11 08:32:51;;;;;;;19.10;10.38;;;22.80;29.60;;;;;;6132323;28;80586;-70
2022/03/11 08:35:53;;;;;;;23.05;10.90;;;22.60;29.50;;;;;;6143885;28;83083;-71
2022/03/11 08:38:53;;;;;;;18.23;9.90;;;22.40;28.90;;;;;;6137227;28;84014;-70
2022/03/11 08:41:54;;;;;;;21.02;11.30;;;22.30;28.60;;;;;;6140736;28;83148;-71
2022/03/11 08:44:54;;;;;;;21.88;11.68;;;22.10;28.90;;;;;;6126226;28;83539;-70
2022/03/11 08:47:55;;;;;;;22.10;10.90;;;22.00;27.70;;;;;;6122890;28;84240;-69
2022/03/11 08:50:55;;;;;;;16.15;9.48;;;21.80;28.10;;;;;;6134820;28;84005;-69
2022/03/11 08:53:56;;;;;;;18.23;8.02;;;21.70;28.00;;;;;;6135015;28;81942;-68
2022/03/11 08:56:56;;;;;;;15.32;8.38;;;21.60;27.90;;;;;;6130610;28;80749;-69
2022/03/11 08:59:57;;;;;;;16.42;8.63;;;21.60;28.30;;;;;;6135576;28;80632;-69
2022/03/11 09:02:57;;;;;;;13.98;8.57;;;21.50;27.50;;;;;;6128410;28;80384;-70
2022/03/11 09:05:58;;;;;;;17.75;8.65;;;21.40;26.90;;;;;;6129538;28;80808;-68
2022/03/11 09:08:59;;;;;;;14.23;7.70;;;21.40;27.40;;;;;;6135105;28;80763;-69
2022/03/11 09:11:59;;;;;;;13.02;7.47;;;21.30;27.30;;;;;;6137709;28;80934;-71
2022/03/11 09:15:00;;;;;;;15.80;7.97;;;21.50;27.60;;;;;;6137696;28;80391;-72
2022/03/11 09:18:00;;;;;;;13.52;7.30;;;21.70;27.60;;;;;;6135188;28;81746;-70
2022/03/11 09:21:02;;;;;;;13.35;6.93;;;21.80;27.10;;;;;;6136367;28;81010;-61
2022/03/11 09:24:02;;;;;;;12.40;7.40;;;21.90;26.70;;;;;;6134988;28;80493;-62
2022/03/11 09:27:03;;;;;;;14.23;7.57;;;22.00;26.20;;;;;;6148444;28;80392;-61
2022/03/11 09:30:03;;;;;;;13.43;7.32;;;22.10;26.50;;;;;;6155841;28;80322;-64
2022/03/11 09:33:04;;;;;;;13.77;7.10;;;22.20;26.70;;;;;;6117295;28;80674;-62
2022/03/11 09:36:04;;;;;;;10.52;6.50;;;22.30;26.90;;;;;;6115164;28;80195;-63
2022/03/11 09:39:05;;;;;;;11.95;6.53;;;22.40;26.90;;;;;;6131675;28;81063;-64
2022/03/11 09:42:06;;;;;;;11.52;6.82;;;22.50;27.20;;;;;;6143419;28;80466;-70
2022/03/11 09:45:06;;;;;;;11.63;6.93;;;22.70;27.50;;;;;;6122297;28;80461;-70
2022/03/11 09:48:10;;;;;;;9.20;5.45;;;22.80;27.70;;;;;;6155132;28;80839;-71
2022/03/11 09:51:11;;;;;;;10.52;5.95;;;23.00;27.80;;;;;;6140235;28;80425;-72
2022/03/11 09:54:13;;;;;;;11.45;5.85;;;23.10;27.70;;;;;;6119836;28;80260;-73
2022/03/11 09:57:13;;;;;;;9.68;5.68;;;23.20;27.70;;;;;;6124060;28;80291;-71
2022/03/11 10:00:14;;;;;;;9.77;5.40;;;23.30;27.70;;;;;;6119598;28;82258;-72
2022/03/11 10:03:15;;;;;;;7.65;4.53;;;23.40;27.60;;;;;;6128849;28;80434;-72
2022/03/11 10:06:16;;;;;;;8.98;4.75;;;23.50;27.50;;;;;;6125609;28;80298;-74
2022/03/11 10:09:16;;;;;;;8.57;5.38;;;23.60;27.40;;;;;;6151054;28;80561;-73
2022/03/11 10:12:17;;;;;;;8.55;5.63;;;23.60;27.40;;;;;;6128125;28;80270;-72
2022/03/11 10:15:24;;;;;;;9.93;5.30;;;23.70;27.30;;;;;;6142414;28;80200;-73
2022/03/11 10:18:24;;;;;;;8.65;4.88;;;23.80;27.30;;;;;;6136165;28;81573;-73
2022/03/11 10:21:25;;;;;;;7.10;4.63;;;23.90;27.30;;;;;;6135387;28;80723;-72
2022/03/11 10:24:25;;;;;;;10.18;5.28;;;23.90;27.30;;;;;;6150782;28;81186;-67
2022/03/11 10:27:26;;;;;;;8.45;4.78;;;24.00;27.40;;;;;;6123770;28;80191;-66
2022/03/11 10:30:26;;;;;;;10.05;5.75;;;24.10;27.40;;;;;;6131880;28;80796;-65
2022/03/11 10:33:27;;;;;;;8.48;4.68;;;24.10;27.40;;;;;;6142854;28;80678;-67
2022/03/11 10:36:28;;;;;;;8.82;5.13;;;24.10;27.20;;;;;;6135206;28;81819;-67
2022/03/11 10:39:28;;;;;;;8.32;4.53;;;24.20;27.30;;;;;;6134976;28;80329;-67
2022/03/11 10:42:29;;;;;;;8.70;5.10;;;24.20;27.10;;;;;;6125105;28;80196;-67
2022/03/11 10:45:29;;;;;;;10.80;5.50;;;24.30;27.10;;;;;;6125810;28;80550;-67
2022/03/11 10:48:30;;;;;;;7.10;4.05;;;24.30;27.10;;;;;;6128188;28;81181;-67
2022/03/11 10:51:33;;;;;;;7.18;4.45;;;24.30;27.10;;;;;;6133718;28;80492;-67
2022/03/11 10:54:34;;;;;;;10.13;5.50;;;24.30;27.10;;;;;;6132630;28;80392;-67
2022/03/11 10:57:35;;;;;;;8.98;5.20;;;24.30;27.10;;;;;;6144363;28;80458;-66
2022/03/11 11:00:35;;;;;;;8.60;5.10;;;24.30;26.90;;;;;;6148832;28;81691;-66
2022/03/11 11:03:36;;;;;;;6.50;4.45;;;24.30;26.80;;;;;;6149814;28;81145;-66
2022/03/11 11:06:36;;;;;;;9.60;5.68;;;24.30;27.20;;;;;;6139358;28;80704;-66
2022/03/11 11:09:37;;;;;;;6.30;4.63;;;24.30;26.70;;;;;;6146223;28;80267;-66
2022/03/11 11:12:37;;;;;;;8.35;5.75;;;24.30;26.70;;;;;;6140868;28;80381;-65
2022/03/11 11:15:38;;;;;;;9.35;5.10;;;24.30;26.70;;;;;;6140253;28;82510;-65
2022/03/11 11:18:39;;;;;;;7.75;5.05;;;24.30;26.70;;;;;;6128239;28;81463;-66
2022/03/11 11:21:40;;;;;;;7.07;4.82;;;24.30;26.60;;;;;;6133852;28;80451;-66
2022/03/11 11:24:40;;;;;;;8.52;4.88;;;24.30;26.60;;;;;;6134831;28;81382;-66
2022/03/11 11:27:41;;;;;;;8.93;4.80;;;24.30;26.60;;;;;;6137868;28;80355;-66
2022/03/11 11:30:41;;;;;;;7.32;4.82;;;24.30;26.50;;;;;;6143195;28;80431;-65
2022/03/11 11:33:43;;;;;;;10.32;4.80;;;24.30;26.60;;;;;;6138546;28;80694;-67
2022/03/11 11:36:44;;;;;;;9.23;5.13;;;24.30;26.70;;;;;;6137252;28;80654;-65
2022/03/11 11:39:51;;;;;;;7.18;4.32;;;24.30;26.80;;;;;;6136519;28;81260;-65
2022/03/11 11:42:52;;;;;;;13.27;5.38;;;24.30;27.00;;;;;;6136104;28;81693;-65
2022/03/11 11:45:52;;;;;;;7.35;4.72;;;24.30;27.00;;;;;;6125411;28;80767;-65
2022/03/11 11:48:53;;;;;;;7.28;4.82;;;24.30;27.10;;;;;;6143189;28;80682;-65
2022/03/11 11:51:53;;;;;;;7.63;4.82;;;24.30;27.00;;;;;;6137680;28;81107;-65
2022/03/11 11:54:54;;;;;;;7.10;4.43;;;24.30;27.00;;;;;;6138099;28;80462;-64
2022/03/11 11:57:55;;;;;;;9.13;4.68;;;24.30;26.70;;;;;;6121035;28;81117;-66
2022/03/11 12:00:55;;;;;;;7.53;4.60;;;24.30;26.70;;;;;;6144261;28;81367;-63
2022/03/11 12:03:56;;;;;;;7.47;4.00;;;24.30;26.90;;;;;;6131870;28;81443;-66
2022/03/11 12:06:56;;;;;;;7.93;4.18;;;24.20;26.90;;;;;;6137126;28;80841;-66
2022/03/11 12:10:01;;;;;;;7.18;4.10;;;24.20;26.70;;;;;;6137544;28;80430;-65
2022/03/11 12:13:03;;;;;;;5.57;3.77;;;24.20;26.70;;;;;;6120910;28;80509;-64
2022/03/11 12:16:03;;;;;;;7.13;4.20;;;24.20;26.60;;;;;;6122502;28;80574;-65
2022/03/11 12:19:04;;;;;;;8.77;4.25;;;24.20;26.90;;;;;;6143655;28;81256;-65
2022/03/11 12:22:05;;;;;;;5.07;3.33;;;24.20;27.00;;;;;;6136562;28;80432;-63
2022/03/11 12:25:06;;;;;;;6.10;3.78;;;24.20;26.50;;;;;;6151437;28;81505;-65
2022/03/11 12:28:07;;;;;;;6.47;4.00;;;24.30;27.20;;;;;;6137103;28;80477;-65
2022/03/11 12:31:09;;;;;;;6.25;3.75;;;24.30;27.20;;;;;;6137748;28;80836;-64
2022/03/11 12:34:10;;;;;;;4.88;3.53;;;24.30;27.10;;;;;;6140882;28;82341;-65
2022/03/11 12:37:11;;;;;;;6.63;4.07;;;24.30;27.00;;;;;;6137675;28;80659;-65
2022/03/11 12:40:11;;;;;;;7.47;4.25;;;24.30;26.90;;;;;;6137489;28;80511;-65
2022/03/11 12:43:12;;;;;;;7.68;4.13;;;24.30;26.80;;;;;;6136167;28;81499;-65
2022/03/11 12:46:12;;;;;;;5.80;3.10;;;24.30;26.70;;;;;;6133298;28;80494;-64
2022/03/11 12:49:14;;;;;;;6.38;4.03;;;24.30;26.70;;;;;;6131886;28;81233;-65
2022/03/11 12:52:14;;;;;;;5.22;3.47;;;24.30;26.70;;;;;;6133471;28;80615;-65
2022/03/11 12:55:15;;;;;;;7.20;3.63;;;24.30;26.60;;;;;;6145993;28;80629;-65
2022/03/11 12:58:16;;;;;;;7.93;3.75;;;24.30;26.40;;;;;;6133455;28;80458;-66
2022/03/11 13:01:16;;;;;;;5.07;3.42;;;24.30;26.40;;;;;;6131884;28;80698;-66
2022/03/11 13:04:17;;;;;;;5.57;3.92;;;24.30;26.20;;;;;;6134628;28;81411;-65
2022/03/11 13:07:17;;;;;;;6.43;3.63;;;24.40;26.30;;;;;;6153202;28;80404;-65
2022/03/11 13:10:18;;;;;;;5.78;3.45;;;24.40;26.50;;;;;;6141516;28;80405;-65
2022/03/11 13:13:20;;;;;;;6.10;3.80;;;24.40;26.10;;;;;;6138067;28;80567;-65
2022/03/11 13:16:21;;;;;;;5.57;2.90;;;24.40;26.30;;;;;;6137037;28;80399;-65
2022/03/11 13:19:21;;;;;;;4.53;3.17;;;24.40;26.40;;;;;;6137110;28;80579;-65
2022/03/11 13:22:22;;;;;;;4.63;3.00;;;24.40;26.20;;;;;;6132521;28;80595;-65
2022/03/11 13:25:23;;;;;;;4.57;3.42;;;24.40;26.20;;;;;;6134403;28;80413;-65
2022/03/11 13:28:23;;;;;;;7.68;3.63;;;24.40;26.20;;;;;;6145057;28;80432;-65
2022/03/11 13:31:24;;;;;;;6.28;3.88;;;24.40;26.20;;;;;;6141523;28;81546;-66
2022/03/11 13:34:24;;;;;;;6.10;3.83;;;24.40;26.30;;;;;;6143934;28;80670;-61
2022/03/11 13:37:25;;;;;;;7.03;3.45;;;24.40;26.80;;;;;;6135637;28;80389;-66
2022/03/11 13:40:25;;;;;;;7.25;4.45;;;24.40;26.70;;;;;;6135857;28;84520;-67
2022/03/11 13:43:26;;;;;;;8.75;3.83;;;24.40;27.10;;;;;;6136468;28;80359;-66
2022/03/11 13:46:26;;;;;;;9.85;3.72;;;24.40;27.30;;;;;;6127875;28;80842;-65
2022/03/11 13:49:27;;;;;;;14.20;4.75;;;24.40;27.00;;;;;;6133753;28;81393;-64
2022/03/11 13:52:28;;;;;;;11.65;4.75;;;24.40;27.60;;;;;;6147748;28;80486;-65
2022/03/11 13:55:29;;;;;;;10.63;4.63;;;24.40;27.70;;;;;;6141730;28;80343;-66
2022/03/11 13:58:29;;;;;;;11.45;4.75;;;24.40;28.00;;;;;;6146878;28;80660;-66
2022/03/11 14:01:30;;;;;;;14.00;5.30;;;24.40;28.10;;;;;;6132543;28;80403;-66
2022/03/11 14:04:30;;;;;;;14.40;5.25;;;24.40;28.20;;;;;;6130629;28;81550;-65
2022/03/11 14:07:31;;;;;;;15.45;5.63;;;24.40;28.30;;;;;;6129758;28;80288;-66
2022/03/11 14:10:33;;;;;;;14.75;4.20;;;24.40;28.20;;;;;;6140572;28;81450;-63
2022/03/11 14:13:35;;;;;;;11.68;4.60;;;24.40;27.70;;;;;;6141770;28;80563;-65
2022/03/11 14:16:36;;;;;;;9.57;4.50;;;24.40;27.60;;;;;;6141138;28;80865;-67
2022/03/11 14:19:36;;;;;;;9.35;4.32;;;24.40;27.40;;;;;;6146163;28;80637;-66
2022/03/11 14:22:37;;;;;;;7.72;4.25;;;24.30;27.50;;;;;;6142548;28;80397;-63
2022/03/11 14:25:37;;;;;;;9.15;4.63;;;24.30;27.30;;;;;;6145031;28;80837;-61
2022/03/11 14:28:38;;;;;;;8.20;4.40;;;24.30;28.20;;;;;;6142643;28;80470;-60
2022/03/11 14:31:39;;;;;;;9.00;4.55;;;24.30;29.00;;;;;;6152672;28;80588;-61
2022/03/11 14:34:40;;;;;;;8.05;4.07;;;24.30;29.80;;;;;;6129656;28;80357;-63
2022/03/11 14:37:40;;;;;;;11.73;4.05;;;24.30;30.80;;;;;;6136839;28;80638;-68
2022/03/11 14:40:42;;;;;;;13.07;4.13;;;24.20;33.70;;;;;;6134916;28;80769;-66
2022/03/11 14:43:42;;;;;;;11.43;4.55;;;24.10;33.70;;;;;;6140711;28;80367;-64
2022/03/11 14:46:44;;;;;;;7.97;3.83;;;24.10;33.80;;;;;;6130933;28;81482;-65
2022/03/11 14:49:47;;;;;;;9.50;4.43;;;24.10;34.60;;;;;;6120786;28;82039;-65
2022/03/11 14:52:47;;;;;;;10.13;4.38;;;24.10;35.30;;;;;;6159927;28;81683;-65
2022/03/11 14:55:49;;;;;;;10.70;3.72;;;24.00;34.60;;;;;;6147309;28;81591;-61
2022/03/11 14:58:50;;;;;;;7.45;3.30;;;24.00;35.90;;;;;;6155815;28;80587;-66
2022/03/11 15:01:50;;;;;;;6.00;3.78;;;24.00;35.20;;;;;;6139736;28;80341;-66
2022/03/11 15:04:51;;;;;;;6.30;3.30;;;24.00;36.90;;;;;;6144166;28;80596;-66
2022/03/11 15:07:51;;;;;;;11.88;4.13;;;24.00;36.60;;;;;;6124256;28;81611;-64
2022/03/11 15:10:52;;;;;;;9.00;3.72;;;24.00;36.80;;;;;;6140913;28;80435;-67
2022/03/11 15:13:52;;;;;;;7.53;3.67;;;24.00;37.30;;;;;;6134790;28;80413;-66
2022/03/11 15:16:53;;;;;;;5.65;3.22;;;24.00;36.90;;;;;;6127006;28;80734;-66
2022/03/11 15:19:53;;;;;;;7.35;3.15;;;23.90;36.80;;;;;;6123592;28;80049;-65
2022/03/11 15:22:54;;;;;;;9.75;4.10;;;24.00;36.70;;;;;;6119625;28;81263;-66